Captain Jimmy T Moran — WDE6653 — position and weather

sailwx.info

Track history (hours):
 
Tides and Currents Weather Stations Pressure Air Temp Water Temp Dewpoint Dewpoint Depression Visibility Wind Speed Wind Dir Waves Ship Positions

Captain Jimmy T Moran

Owner: Moran Towing Corp, New Cannan, CT. More information available from US FCC via Universal Licensing System and Coast Guard Vessel Documentation Center.

Last reported at 2016-May-06 06:33 UTC. Time now 2016-May-06 07:24 UTC.
Position N 29°55' W 090°04'.

Length 26 m; draft 4.9 m.

Type: Tug. MMSI: 367382920.

Date/timePositionNaut miles runAvg speedWind from/ knotsBaromVisibWave heightAir tempDewpointWater temp
2016-May-06 06:33N 29°55' W 090°04'0 0.0
2016-May-06 05:33N 29°55' W 090°04'0 0.0
2016-May-06 04:33N 29°55' W 090°04'1 1.2
2016-May-06 03:33N 29°55' W 090°05'1 1.0
2016-May-06 02:33N 29°55' W 090°04'0 0.3
2016-May-06 01:33N 29°55' W 090°04'0 0.0
2016-May-06 00:33N 29°55' W 090°04'0 0.0
2016-May-05 23:33N 29°55' W 090°04'0 0.0
2016-May-05 22:33N 29°55' W 090°04'0 0.0
2016-May-05 21:33N 29°55' W 090°04'0 0.0
2016-May-05 20:33N 29°55' W 090°04'2 1.9
2016-May-05 19:33N 29°57' W 090°03'0 0.0
2016-May-05 18:33N 29°57' W 090°03'0 0.0
2016-May-05 17:33N 29°57' W 090°03'0 0.0
2016-May-05 16:33N 29°57' W 090°03'0 0.0
2016-May-05 15:33N 29°57' W 090°03'0 0.0
2016-May-05 14:34N 29°57' W 090°03'0 0.0
2016-May-05 13:33N 29°57' W 090°03'0 0.0
2016-May-05 12:34N 29°57' W 090°03'0 0.0
2016-May-05 11:33N 29°57' W 090°03'2 2.2
2016-May-05 10:33N 29°55' W 090°05'6 5.8
2016-May-05 09:33N 29°55' W 089°58'2 1.3
2016-May-05 08:21N 29°55' W 089°56'7 8.7
2016-May-05 07:33N 29°55' W 090°04'0 0.0
2016-May-05 06:33N 29°55' W 090°04'0 0.0
2016-May-05 05:34N 29°55' W 090°04'0 0.0
2016-May-05 04:34N 29°55' W 090°04'0 0.0
2016-May-05 03:33N 29°55' W 090°04'1 1.1
2016-May-05 02:33N 29°55' W 090°05'0 0.3
2016-May-05 01:34N 29°55' W 090°05'0 0.0
2016-May-05 00:34N 29°55' W 090°05'1 1.3
2016-May-04 23:33N 29°55' W 090°07'2 2.2
2016-May-04 22:33N 29°55' W 090°04'0 0.0
2016-May-04 21:33N 29°55' W 090°04'0 0.0
2016-May-04 20:34N 29°55' W 090°04'2 2.4
2016-May-04 19:33N 29°55' W 090°07'2 2.4
2016-May-04 18:34N 29°55' W 090°04'0 0.0
2016-May-04 17:33N 29°55' W 090°04'2 2.1
2016-May-04 16:33N 29°55' W 090°07'2 2.1
2016-May-04 15:34N 29°55' W 090°04'0 0.0
2016-May-04 14:34N 29°55' W 090°04'0 0.0
2016-May-04 13:34N 29°55' W 090°04'1 1.4
2016-May-04 12:34N 29°55' W 090°06'1 1.4
2016-May-04 11:33N 29°55' W 090°04'0 0.0
2016-May-04 10:34N 29°55' W 090°04'0 0.0
2016-May-04 09:34N 29°55' W 090°04'0 0.0
2016-May-04 08:33N 29°55' W 090°04'0 0.0
2016-May-04 07:33N 29°55' W 090°04'0 0.0
2016-May-04 06:33N 29°55' W 090°04'0 0.0
2016-May-04 05:33N 29°55' W 090°04'0 0.0
2016-May-04 04:34N 29°55' W 090°04'0 0.0
2016-May-04 03:34N 29°55' W 090°04'0 0.0
2016-May-04 02:34N 29°55' W 090°04'0 0.0
2016-May-04 01:34N 29°55' W 090°04'0 0.0
2016-May-04 00:33N 29°55' W 090°04'0 0.0
2016-May-03 23:33N 29°55' W 090°04'0 0.4
2016-May-03 22:34N 29°55' W 090°04'2 2.4
2016-May-03 21:33N 29°55' W 090°06'2 2.0
2016-May-03 20:34N 29°55' W 090°04'0 0.0
2016-May-03 19:33N 29°55' W 090°04'0 0.0
2016-May-03 18:20N 29°55' W 090°04'2 2.8
2016-May-03 17:33N 29°55' W 090°07'0 0.3
2016-May-03 16:33N 29°55' W 090°06'2 1.9
2016-May-03 15:33N 29°55' W 090°04'0 0.0
2016-May-03 14:33N 29°55' W 090°04'0 0.0
2016-May-03 13:33N 29°55' W 090°04'2 1.6
2016-May-03 12:34N 29°55' W 090°06'0 0.0
2016-May-03 11:33N 29°55' W 090°06'0 0.0
2016-May-03 10:33N 29°55' W 090°06'0 0.0
2016-May-03 09:33N 29°55' W 090°06'0 0.0
2016-May-03 08:33N 29°55' W 090°06'0 0.0
2016-May-03 07:34N 29°55' W 090°06'0 0.0
2016-May-03 06:33N 29°55' W 090°06'0 0.0
2016-May-03 05:33N 29°55' W 090°06'0 0.2
2016-May-03 04:33N 29°55' W 090°06'0 0.4
2016-May-03 03:33N 29°55' W 090°05'1 0.6
2016-May-03 02:34N 29°55' W 090°06'0 0.0
2016-May-03 01:34N 29°55' W 090°06'0 0.0
2016-May-03 00:33N 29°55' W 090°06'0 0.0
2016-May-02 23:34N 29°55' W 090°06'1 0.6
2016-May-02 22:33N 29°55' W 090°07'1 0.6
2016-May-02 21:34N 29°55' W 090°06'2 0.4
2016-May-02 17:24N 29°55' W 090°04'0 0.0
2016-May-02 16:33N 29°55' W 090°04'0 0.0
2016-May-02 15:32N 29°55' W 090°04'2 1.6
2016-May-02 14:33N 29°55' W 090°06'0 0.0
2016-May-02 13:33N 29°55' W 090°06'0 0.0
2016-May-02 12:33N 29°55' W 090°06'0 0.0
2016-May-02 11:33N 29°55' W 090°06'0 0.0
2016-May-02 10:33N 29°55' W 090°06'0 0.0
2016-May-02 09:34N 29°55' W 090°06'0 0.0
2016-May-02 08:33N 29°55' W 090°06'0 0.0
2016-May-02 07:33N 29°55' W 090°06'0 0.0
2016-May-02 06:33N 29°55' W 090°06'0 0.0
2016-May-02 05:33N 29°55' W 090°06'0 0.0
2016-May-02 04:33N 29°55' W 090°06'1 0.9
2016-May-02 03:34N 29°55' W 090°07'1 0.9
2016-May-02 02:33N 29°55' W 090°06'0 0.0
2016-May-02 01:33N 29°55' W 090°06'0 0.0
2016-May-02 00:34N 29°55' W 090°06'0 0.0
2016-May-01 23:34N 29°55' W 090°06'0 0.5
2016-May-01 22:33N 29°55' W 090°06'0 0.5
2016-May-01 21:34N 29°55' W 090°06'0 0.0
2016-May-01 20:33N 29°55' W 090°06'0 0.0
2016-May-01 19:33N 29°55' W 090°06'0 0.0
2016-May-01 18:33N 29°55' W 090°06'0 0.0
2016-May-01 17:34N 29°55' W 090°06'0 0.0
2016-May-01 16:33N 29°55' W 090°06'0 0.0
2016-May-01 15:34N 29°55' W 090°06'1 0.6
2016-May-01 14:33N 29°55' W 090°05'1 0.6
2016-May-01 13:33N 29°55' W 090°06'0 0.0
2016-May-01 12:33N 29°55' W 090°06'0 0.0
2016-May-01 11:33N 29°55' W 090°06'0 0.0
2016-May-01 10:33N 29°55' W 090°06'0 0.0
2016-May-01 09:33N 29°55' W 090°06'0 0.0
2016-May-01 08:34N 29°55' W 090°06'0 0.0
2016-May-01 07:33N 29°55' W 090°06'0 0.0
2016-May-01 06:34N 29°55' W 090°06'0 0.0
2016-May-01 05:33N 29°55' W 090°06'0 0.0
2016-May-01 04:34N 29°55' W 090°06'0 0.0
2016-May-01 03:33N 29°55' W 090°06'0 0.0
2016-May-01 02:34N 29°55' W 090°06'3 2.6
2016-May-01 01:34N 29°56' W 090°04'3 2.6
2016-May-01 00:33N 29°57' W 090°01'1 0.6
2016-Apr-30 23:33N 29°57' W 090°01'5 5.2
2016-Apr-30 22:33N 29°55' W 090°06'0 0.5
2016-Apr-30 21:33N 29°55' W 090°06'0 0.0
2016-Apr-30 20:33N 29°55' W 090°06'0 0.0
2016-Apr-30 19:33N 29°55' W 090°06'0 0.0
2016-Apr-30 18:33N 29°55' W 090°06'0 0.0
2016-Apr-30 17:33N 29°55' W 090°06'0 0.0
2016-Apr-30 16:33N 29°55' W 090°06'0 0.0
2016-Apr-30 15:33N 29°55' W 090°06'0 0.0
2016-Apr-30 14:33N 29°55' W 090°06'0 0.0
2016-Apr-30 13:33N 29°55' W 090°06'0 0.0
2016-Apr-30 12:33N 29°55' W 090°06'0 0.0
2016-Apr-30 11:33N 29°55' W 090°06'0 0.0
2016-Apr-30 10:33N 29°55' W 090°06'0 0.0
2016-Apr-30 09:34N 29°55' W 090°06'0 0.0
2016-Apr-30 08:34N 29°55' W 090°06'0 0.3
2016-Apr-30 07:33N 29°55' W 090°06'6 6.2
2016-Apr-30 06:33N 29°56' W 089°58'3 2.7
2016-Apr-30 05:30N 29°53' W 089°58'2 0.3
2016-Apr-29 23:33N 29°51' W 089°59'6 5.7
2016-Apr-29 22:33N 29°57' W 090°00'5 5.2
2016-Apr-29 21:33N 29°55' W 090°06'0 0.0
2016-Apr-29 20:33N 29°55' W 090°06'0 0.0
2016-Apr-29 19:33N 29°55' W 090°06'0 0.0
2016-Apr-29 18:34N 29°55' W 090°06'0 0.0
2016-Apr-29 17:33N 29°55' W 090°06'0 0.0
2016-Apr-29 16:34N 29°55' W 090°06'0 0.0
2016-Apr-29 15:33N 29°55' W 090°06'0 0.0
2016-Apr-29 14:33N 29°55' W 090°06'0 0.0
2016-Apr-29 13:33N 29°55' W 090°06'0 0.0
2016-Apr-29 12:33N 29°55' W 090°06'0 0.0
2016-Apr-29 11:33N 29°55' W 090°06'0 0.0
2016-Apr-29 10:33N 29°55' W 090°06'0 0.0
2016-Apr-29 09:33N 29°55' W 090°06'0 0.0
2016-Apr-29 08:33N 29°55' W 090°06'0 0.0
2016-Apr-29 07:33N 29°55' W 090°06'0 0.0
2016-Apr-29 06:33N 29°55' W 090°06'0 0.0
2016-Apr-29 05:33N 29°55' W 090°06'0 0.0
2016-Apr-29 04:33N 29°55' W 090°06'0 0.0
2016-Apr-29 03:33N 29°55' W 090°06'1 0.6
2016-Apr-29 02:33N 29°55' W 090°07'0 0.1
2016-Apr-29 01:33N 29°55' W 090°06'1 0.5
2016-Apr-29 00:33N 29°55' W 090°06'3 3.0
2016-Apr-28 23:34N 29°57' W 090°04'0 0.2
2016-Apr-28 22:33N 29°57' W 090°03'0 0.0
2016-Apr-28 21:34N 29°57' W 090°03'0 0.0
2016-Apr-28 20:33N 29°57' W 090°03'0 0.0
2016-Apr-28 19:33N 29°57' W 090°03'0 0.0
2016-Apr-28 18:34N 29°57' W 090°03'0 0.0
2016-Apr-28 17:32N 29°57' W 090°03'0 0.0
2016-Apr-28 16:33N 29°57' W 090°03'0 0.0
2016-Apr-28 15:33N 29°57' W 090°03'2 1.9
2016-Apr-28 14:33N 29°55' W 090°04'0 0.0
2016-Apr-28 13:33N 29°55' W 090°04'2 2.4
2016-Apr-28 12:32N 29°55' W 090°07'1 0.9
2016-Apr-28 11:33N 29°55' W 090°06'0 0.0
2016-Apr-28 10:33N 29°55' W 090°06'0 0.3
2016-Apr-28 09:33N 29°55' W 090°06'0 0.3
2016-Apr-28 08:33N 29°55' W 090°06'0 0.0
2016-Apr-28 07:33N 29°55' W 090°06'0 0.0
2016-Apr-28 06:33N 29°55' W 090°06'0 0.0
2016-Apr-28 05:33N 29°55' W 090°06'0 0.0
2016-Apr-28 04:33N 29°55' W 090°06'0 0.0
2016-Apr-28 03:33N 29°55' W 090°06'0 0.3
2016-Apr-28 02:33N 29°55' W 090°06'5 4.7
2016-Apr-28 01:33N 29°57' W 090°01'3 3.4
2016-Apr-28 00:33N 29°55' W 089°57'0 0.0
2016-Apr-27 23:30N 29°55' W 089°57'8 7.4
2016-Apr-27 22:26N 29°55' W 090°06'0 0.0
2016-Apr-27 21:33N 29°55' W 090°06'0 0.0
2016-Apr-27 20:33N 29°55' W 090°06'0 0.2
2016-Apr-27 19:12N 29°55' W 090°06'2 2.6
2016-Apr-27 18:33N 29°55' W 090°08'3 2.9
2016-Apr-27 17:33N 29°55' W 090°04'0 0.0
2016-Apr-27 16:33N 29°55' W 090°04'0 0.0
2016-Apr-27 15:33N 29°55' W 090°04'0 0.0
2016-Apr-27 14:33N 29°55' W 090°04'0 0.0
2016-Apr-27 13:33N 29°55' W 090°04'0 0.0
2016-Apr-27 12:33N 29°55' W 090°04'0 0.0
2016-Apr-27 11:33N 29°55' W 090°04'0 0.0
2016-Apr-27 10:33N 29°55' W 090°04'0 0.0
2016-Apr-27 09:33N 29°55' W 090°04'2 2.1
2016-Apr-27 08:33N 29°55' W 090°07'1 0.6
2016-Apr-27 07:33N 29°55' W 090°06'0 0.0
2016-Apr-27 06:33N 29°55' W 090°06'0 0.5
2016-Apr-27 05:32N 29°55' W 090°05'0 0.5
2016-Apr-27 04:33N 29°55' W 090°06'0 0.0
2016-Apr-27 03:33N 29°55' W 090°06'0 0.0
2016-Apr-27 02:33N 29°55' W 090°06'1 0.6
2016-Apr-27 01:33N 29°55' W 090°07'1 0.6
2016-Apr-27 00:33N 29°55' W 090°06'0 0.0
2016-Apr-26 23:33N 29°55' W 090°06'0 0.0
2016-Apr-26 22:33N 29°55' W 090°06'0 0.0
2016-Apr-26 21:33N 29°55' W 090°06'0 0.0
2016-Apr-26 20:33N 29°55' W 090°06'0 0.0
2016-Apr-26 19:33N 29°55' W 090°06'0 0.0
2016-Apr-26 18:33N 29°55' W 090°06'0 0.4
2016-Apr-26 17:33N 29°55' W 090°05'2 1.7
2016-Apr-26 16:33N 29°55' W 090°04'0 0.5
2016-Apr-26 15:33N 29°55' W 090°04'0 0.1
2016-Apr-26 14:33N 29°55' W 090°04'3 2.9
2016-Apr-26 13:33N 29°57' W 090°02'1 0.5
2016-Apr-26 11:33N 29°57' W 090°00'1 0.8
2016-Apr-26 10:33N 29°57' W 090°01'0 0.0
2016-Apr-26 09:33N 29°57' W 090°01'0 0.0
2016-Apr-26 08:33N 29°57' W 090°01'0 0.0
2016-Apr-26 07:33N 29°57' W 090°01'0 0.0
2016-Apr-26 06:33N 29°57' W 090°01'  
Track history (hours):
 
Tides and Currents Weather Stations Pressure Air Temp Water Temp Dewpoint Dewpoint Depression Visibility Wind Speed Wind Dir Waves Ship Positions

Captain Jimmy T Moran

Owner: Moran Towing Corp, New Cannan, CT. More information available from US FCC via Universal Licensing System and Coast Guard Vessel Documentation Center.

Last reported at 2016-May-06 06:33 UTC. Time now 2016-May-06 07:24 UTC.
Position N 29°55' W 090°04'.

Length 26 m; draft 4.9 m.

Type: Tug. MMSI: 367382920.

Date/timePositionNaut miles runAvg speedWind from/ knotsBaromVisibWave heightAir tempDewpointWater temp
2016-May-06 06:33N 29°55' W 090°04'0 0.0
2016-May-06 05:33N 29°55' W 090°04'0 0.0
2016-May-06 04:33N 29°55' W 090°04'1 1.2
2016-May-06 03:33N 29°55' W 090°05'1 1.0
2016-May-06 02:33N 29°55' W 090°04'0 0.3
2016-May-06 01:33N 29°55' W 090°04'0 0.0
2016-May-06 00:33N 29°55' W 090°04'0 0.0
2016-May-05 23:33N 29°55' W 090°04'0 0.0
2016-May-05 22:33N 29°55' W 090°04'0 0.0
2016-May-05 21:33N 29°55' W 090°04'0 0.0
2016-May-05 20:33N 29°55' W 090°04'2 1.9
2016-May-05 19:33N 29°57' W 090°03'0 0.0
2016-May-05 18:33N 29°57' W 090°03'0 0.0
2016-May-05 17:33N 29°57' W 090°03'0 0.0
2016-May-05 16:33N 29°57' W 090°03'0 0.0
2016-May-05 15:33N 29°57' W 090°03'0 0.0
2016-May-05 14:34N 29°57' W 090°03'0 0.0
2016-May-05 13:33N 29°57' W 090°03'0 0.0
2016-May-05 12:34N 29°57' W 090°03'0 0.0
2016-May-05 11:33N 29°57' W 090°03'2 2.2
2016-May-05 10:33N 29°55' W 090°05'6 5.8
2016-May-05 09:33N 29°55' W 089°58'2 1.3
2016-May-05 08:21N 29°55' W 089°56'7 8.7
2016-May-05 07:33N 29°55' W 090°04'0 0.0
2016-May-05 06:33N 29°55' W 090°04'0 0.0
2016-May-05 05:34N 29°55' W 090°04'0 0.0
2016-May-05 04:34N 29°55' W 090°04'0 0.0
2016-May-05 03:33N 29°55' W 090°04'1 1.1
2016-May-05 02:33N 29°55' W 090°05'0 0.3
2016-May-05 01:34N 29°55' W 090°05'0 0.0
2016-May-05 00:34N 29°55' W 090°05'1 1.3
2016-May-04 23:33N 29°55' W 090°07'2 2.2
2016-May-04 22:33N 29°55' W 090°04'0 0.0
2016-May-04 21:33N 29°55' W 090°04'0 0.0
2016-May-04 20:34N 29°55' W 090°04'2 2.4
2016-May-04 19:33N 29°55' W 090°07'2 2.4
2016-May-04 18:34N 29°55' W 090°04'0 0.0
2016-May-04 17:33N 29°55' W 090°04'2 2.1
2016-May-04 16:33N 29°55' W 090°07'2 2.1
2016-May-04 15:34N 29°55' W 090°04'0 0.0
2016-May-04 14:34N 29°55' W 090°04'0 0.0
2016-May-04 13:34N 29°55' W 090°04'1 1.4
2016-May-04 12:34N 29°55' W 090°06'1 1.4
2016-May-04 11:33N 29°55' W 090°04'0 0.0
2016-May-04 10:34N 29°55' W 090°04'0 0.0
2016-May-04 09:34N 29°55' W 090°04'0 0.0
2016-May-04 08:33N 29°55' W 090°04'0 0.0
2016-May-04 07:33N 29°55' W 090°04'0 0.0
2016-May-04 06:33N 29°55' W 090°04'0 0.0
2016-May-04 05:33N 29°55' W 090°04'0 0.0
2016-May-04 04:34N 29°55' W 090°04'0 0.0
2016-May-04 03:34N 29°55' W 090°04'0 0.0
2016-May-04 02:34N 29°55' W 090°04'0 0.0
2016-May-04 01:34N 29°55' W 090°04'0 0.0
2016-May-04 00:33N 29°55' W 090°04'0 0.0
2016-May-03 23:33N 29°55' W 090°04'0 0.4
2016-May-03 22:34N 29°55' W 090°04'2 2.4
2016-May-03 21:33N 29°55' W 090°06'2 2.0
2016-May-03 20:34N 29°55' W 090°04'0 0.0
2016-May-03 19:33N 29°55' W 090°04'0 0.0
2016-May-03 18:20N 29°55' W 090°04'2 2.8
2016-May-03 17:33N 29°55' W 090°07'0 0.3
2016-May-03 16:33N 29°55' W 090°06'2 1.9
2016-May-03 15:33N 29°55' W 090°04'0 0.0
2016-May-03 14:33N 29°55' W 090°04'0 0.0
2016-May-03 13:33N 29°55' W 090°04'2 1.6
2016-May-03 12:34N 29°55' W 090°06'0 0.0
2016-May-03 11:33N 29°55' W 090°06'0 0.0
2016-May-03 10:33N 29°55' W 090°06'0 0.0
2016-May-03 09:33N 29°55' W 090°06'0 0.0
2016-May-03 08:33N 29°55' W 090°06'0 0.0
2016-May-03 07:34N 29°55' W 090°06'0 0.0
2016-May-03 06:33N 29°55' W 090°06'0 0.0
2016-May-03 05:33N 29°55' W 090°06'0 0.2
2016-May-03 04:33N 29°55' W 090°06'0 0.4
2016-May-03 03:33N 29°55' W 090°05'1 0.6
2016-May-03 02:34N 29°55' W 090°06'0 0.0
2016-May-03 01:34N 29°55' W 090°06'0 0.0
2016-May-03 00:33N 29°55' W 090°06'0 0.0
2016-May-02 23:34N 29°55' W 090°06'1 0.6
2016-May-02 22:33N 29°55' W 090°07'1 0.6
2016-May-02 21:34N 29°55' W 090°06'2 0.4
2016-May-02 17:24N 29°55' W 090°04'0 0.0
2016-May-02 16:33N 29°55' W 090°04'0 0.0
2016-May-02 15:32N 29°55' W 090°04'2 1.6
2016-May-02 14:33N 29°55' W 090°06'0 0.0
2016-May-02 13:33N 29°55' W 090°06'0 0.0
2016-May-02 12:33N 29°55' W 090°06'0 0.0
2016-May-02 11:33N 29°55' W 090°06'0 0.0
2016-May-02 10:33N 29°55' W 090°06'0 0.0
2016-May-02 09:34N 29°55' W 090°06'0 0.0
2016-May-02 08:33N 29°55' W 090°06'0 0.0
2016-May-02 07:33N 29°55' W 090°06'0 0.0
2016-May-02 06:33N 29°55' W 090°06'0 0.0
2016-May-02 05:33N 29°55' W 090°06'0 0.0
2016-May-02 04:33N 29°55' W 090°06'1 0.9
2016-May-02 03:34N 29°55' W 090°07'1 0.9
2016-May-02 02:33N 29°55' W 090°06'0 0.0
2016-May-02 01:33N 29°55' W 090°06'0 0.0
2016-May-02 00:34N 29°55' W 090°06'0 0.0
2016-May-01 23:34N 29°55' W 090°06'0 0.5
2016-May-01 22:33N 29°55' W 090°06'0 0.5
2016-May-01 21:34N 29°55' W 090°06'0 0.0
2016-May-01 20:33N 29°55' W 090°06'0 0.0
2016-May-01 19:33N 29°55' W 090°06'0 0.0
2016-May-01 18:33N 29°55' W 090°06'0 0.0
2016-May-01 17:34N 29°55' W 090°06'0 0.0
2016-May-01 16:33N 29°55' W 090°06'0 0.0
2016-May-01 15:34N 29°55' W 090°06'1 0.6
2016-May-01 14:33N 29°55' W 090°05'1 0.6
2016-May-01 13:33N 29°55' W 090°06'0 0.0
2016-May-01 12:33N 29°55' W 090°06'0 0.0
2016-May-01 11:33N 29°55' W 090°06'0 0.0
2016-May-01 10:33N 29°55' W 090°06'0 0.0
2016-May-01 09:33N 29°55' W 090°06'0 0.0
2016-May-01 08:34N 29°55' W 090°06'0 0.0
2016-May-01 07:33N 29°55' W 090°06'0 0.0
2016-May-01 06:34N 29°55' W 090°06'0 0.0
2016-May-01 05:33N 29°55' W 090°06'0 0.0
2016-May-01 04:34N 29°55' W 090°06'0 0.0
2016-May-01 03:33N 29°55' W 090°06'0 0.0
2016-May-01 02:34N 29°55' W 090°06'3 2.6
2016-May-01 01:34N 29°56' W 090°04'3 2.6
2016-May-01 00:33N 29°57' W 090°01'1 0.6
2016-Apr-30 23:33N 29°57' W 090°01'5 5.2
2016-Apr-30 22:33N 29°55' W 090°06'0 0.5
2016-Apr-30 21:33N 29°55' W 090°06'0 0.0
2016-Apr-30 20:33N 29°55' W 090°06'0 0.0
2016-Apr-30 19:33N 29°55' W 090°06'0 0.0
2016-Apr-30 18:33N 29°55' W 090°06'0 0.0
2016-Apr-30 17:33N 29°55' W 090°06'0 0.0
2016-Apr-30 16:33N 29°55' W 090°06'0 0.0
2016-Apr-30 15:33N 29°55' W 090°06'0 0.0
2016-Apr-30 14:33N 29°55' W 090°06'0 0.0
2016-Apr-30 13:33N 29°55' W 090°06'0 0.0
2016-Apr-30 12:33N 29°55' W 090°06'0 0.0
2016-Apr-30 11:33N 29°55' W 090°06'0 0.0
2016-Apr-30 10:33N 29°55' W 090°06'0 0.0
2016-Apr-30 09:34N 29°55' W 090°06'0 0.0
2016-Apr-30 08:34N 29°55' W 090°06'0 0.3
2016-Apr-30 07:33N 29°55' W 090°06'6 6.2
2016-Apr-30 06:33N 29°56' W 089°58'3 2.7
2016-Apr-30 05:30N 29°53' W 089°58'2 0.3
2016-Apr-29 23:33N 29°51' W 089°59'6 5.7
2016-Apr-29 22:33N 29°57' W 090°00'5 5.2
2016-Apr-29 21:33N 29°55' W 090°06'0 0.0
2016-Apr-29 20:33N 29°55' W 090°06'0 0.0
2016-Apr-29 19:33N 29°55' W 090°06'0 0.0
2016-Apr-29 18:34N 29°55' W 090°06'0 0.0
2016-Apr-29 17:33N 29°55' W 090°06'0 0.0
2016-Apr-29 16:34N 29°55' W 090°06'0 0.0
2016-Apr-29 15:33N 29°55' W 090°06'0 0.0
2016-Apr-29 14:33N 29°55' W 090°06'0 0.0
2016-Apr-29 13:33N 29°55' W 090°06'0 0.0
2016-Apr-29 12:33N 29°55' W 090°06'0 0.0
2016-Apr-29 11:33N 29°55' W 090°06'0 0.0
2016-Apr-29 10:33N 29°55' W 090°06'0 0.0
2016-Apr-29 09:33N 29°55' W 090°06'0 0.0
2016-Apr-29 08:33N 29°55' W 090°06'0 0.0
2016-Apr-29 07:33N 29°55' W 090°06'0 0.0
2016-Apr-29 06:33N 29°55' W 090°06'0 0.0
2016-Apr-29 05:33N 29°55' W 090°06'0 0.0
2016-Apr-29 04:33N 29°55' W 090°06'0 0.0
2016-Apr-29 03:33N 29°55' W 090°06'1 0.6
2016-Apr-29 02:33N 29°55' W 090°07'0 0.1
2016-Apr-29 01:33N 29°55' W 090°06'1 0.5
2016-Apr-29 00:33N 29°55' W 090°06'3 3.0
2016-Apr-28 23:34N 29°57' W 090°04'0 0.2
2016-Apr-28 22:33N 29°57' W 090°03'0 0.0
2016-Apr-28 21:34N 29°57' W 090°03'0 0.0
2016-Apr-28 20:33N 29°57' W 090°03'0 0.0
2016-Apr-28 19:33N 29°57' W 090°03'0 0.0
2016-Apr-28 18:34N 29°57' W 090°03'0 0.0
2016-Apr-28 17:32N 29°57' W 090°03'0 0.0
2016-Apr-28 16:33N 29°57' W 090°03'0 0.0
2016-Apr-28 15:33N 29°57' W 090°03'2 1.9
2016-Apr-28 14:33N 29°55' W 090°04'0 0.0
2016-Apr-28 13:33N 29°55' W 090°04'2 2.4
2016-Apr-28 12:32N 29°55' W 090°07'1 0.9
2016-Apr-28 11:33N 29°55' W 090°06'0 0.0
2016-Apr-28 10:33N 29°55' W 090°06'0 0.3
2016-Apr-28 09:33N 29°55' W 090°06'0 0.3
2016-Apr-28 08:33N 29°55' W 090°06'0 0.0
2016-Apr-28 07:33N 29°55' W 090°06'0 0.0
2016-Apr-28 06:33N 29°55' W 090°06'0 0.0
2016-Apr-28 05:33N 29°55' W 090°06'0 0.0
2016-Apr-28 04:33N 29°55' W 090°06'0 0.0
2016-Apr-28 03:33N 29°55' W 090°06'0 0.3
2016-Apr-28 02:33N 29°55' W 090°06'5 4.7
2016-Apr-28 01:33N 29°57' W 090°01'3 3.4
2016-Apr-28 00:33N 29°55' W 089°57'0 0.0
2016-Apr-27 23:30N 29°55' W 089°57'8 7.4
2016-Apr-27 22:26N 29°55' W 090°06'0 0.0
2016-Apr-27 21:33N 29°55' W 090°06'0 0.0
2016-Apr-27 20:33N 29°55' W 090°06'0 0.2
2016-Apr-27 19:12N 29°55' W 090°06'2 2.6
2016-Apr-27 18:33N 29°55' W 090°08'3 2.9
2016-Apr-27 17:33N 29°55' W 090°04'0 0.0
2016-Apr-27 16:33N 29°55' W 090°04'0 0.0
2016-Apr-27 15:33N 29°55' W 090°04'0 0.0
2016-Apr-27 14:33N 29°55' W 090°04'0 0.0
2016-Apr-27 13:33N 29°55' W 090°04'0 0.0
2016-Apr-27 12:33N 29°55' W 090°04'0 0.0
2016-Apr-27 11:33N 29°55' W 090°04'0 0.0
2016-Apr-27 10:33N 29°55' W 090°04'0 0.0
2016-Apr-27 09:33N 29°55' W 090°04'2 2.1
2016-Apr-27 08:33N 29°55' W 090°07'1 0.6
2016-Apr-27 07:33N 29°55' W 090°06'0 0.0
2016-Apr-27 06:33N 29°55' W 090°06'0 0.5
2016-Apr-27 05:32N 29°55' W 090°05'0 0.5
2016-Apr-27 04:33N 29°55' W 090°06'0 0.0
2016-Apr-27 03:33N 29°55' W 090°06'0 0.0
2016-Apr-27 02:33N 29°55' W 090°06'1 0.6
2016-Apr-27 01:33N 29°55' W 090°07'1 0.6
2016-Apr-27 00:33N 29°55' W 090°06'0 0.0
2016-Apr-26 23:33N 29°55' W 090°06'0 0.0
2016-Apr-26 22:33N 29°55' W 090°06'0 0.0
2016-Apr-26 21:33N 29°55' W 090°06'0 0.0
2016-Apr-26 20:33N 29°55' W 090°06'0 0.0
2016-Apr-26 19:33N 29°55' W 090°06'0 0.0
2016-Apr-26 18:33N 29°55' W 090°06'0 0.4
2016-Apr-26 17:33N 29°55' W 090°05'2 1.7
2016-Apr-26 16:33N 29°55' W 090°04'0 0.5
2016-Apr-26 15:33N 29°55' W 090°04'0 0.1
2016-Apr-26 14:33N 29°55' W 090°04'3 2.9
2016-Apr-26 13:33N 29°57' W 090°02'1 0.5
2016-Apr-26 11:33N 29°57' W 090°00'1 0.8
2016-Apr-26 10:33N 29°57' W 090°01'0 0.0
2016-Apr-26 09:33N 29°57' W 090°01'0 0.0
2016-Apr-26 08:33N 29°57' W 090°01'0 0.0
2016-Apr-26 07:33N 29°57' W 090°01'0 0.0
2016-Apr-26 06:33N 29°57' W 090°01'  

Dump ship's entire track history